Time;durP1;ratioP1;P1;durP2;ratioP2;P2;SDS_P1;SDS_P2;PMS_P1;PMS_P2;Temp;Humidity;BMP_temperature;BMP_pressure;BME280_temperature;BME280_humidity;BME280_pressure;Samples;Min_cycle;Max_cycle;Signal;HPM_P1;HPM_P2
2022/03/16 00:01:48;;;;;;;7.65;5.15;;;;;;;3.87;44.37;95786.28;5032155;28;20037;-67
2022/03/16 00:04:13;;;;;;;7.43;4.68;;;;;;;3.85;44.74;95793.22;5035561;28;20036;-67
2022/03/16 00:06:39;;;;;;;7.38;4.82;;;;;;;3.89;46.66;95805.06;5052124;28;20017;-67
2022/03/16 00:09:04;;;;;;;7.97;4.68;;;;;;;3.83;48.33;95798.44;5035405;28;20025;-67
2022/03/16 00:11:30;;;;;;;7.32;4.95;;;;;;;3.71;46.05;95780.94;5052993;28;20094;-67
2022/03/16 00:13:55;;;;;;;7.75;4.80;;;;;;;3.84;45.53;95794.94;5051886;28;20041;-67
2022/03/16 00:16:20;;;;;;;7.25;4.53;;;;;;;3.90;44.19;95797.28;5053381;28;20032;-68
2022/03/16 00:18:46;;;;;;;13.00;5.05;;;;;;;3.93;45.36;95786.88;5051768;28;20064;-67
2022/03/16 00:21:11;;;;;;;7.88;4.78;;;;;;;3.94;44.30;95778.25;5053175;28;20032;-67
2022/03/16 00:23:37;;;;;;;7.80;4.70;;;;;;;4.10;46.13;95793.06;5051676;28;20084;-67
2022/03/16 00:26:03;;;;;;;9.95;5.82;;;;;;;3.83;48.33;95803.56;5034978;28;20533;-67
2022/03/16 00:28:28;;;;;;;8.70;5.20;;;;;;;3.72;49.25;95798.03;5051566;28;20058;-67
2022/03/16 00:30:53;;;;;;;12.55;9.02;;;;;;;3.65;47.56;95788.88;5051606;28;20036;-68
2022/03/16 00:33:19;;;;;;;16.35;9.82;;;;;;;3.56;47.64;95790.09;5052973;28;20558;-67
2022/03/16 00:35:44;;;;;;;10.48;7.38;;;;;;;3.51;50.13;95782.56;5051442;28;20095;-67
2022/03/16 00:38:12;;;;;;;11.93;6.43;;;;;;;3.36;48.78;95771.16;5034784;28;20430;-67
2022/03/16 00:40:37;;;;;;;8.32;6.03;;;;;;;3.38;49.64;95777.97;5034953;28;20036;-67
2022/03/16 00:43:02;;;;;;;9.50;5.65;;;;;;;3.39;48.08;95777.91;5052865;28;20029;-67
2022/03/16 00:45:28;;;;;;;9.90;5.70;;;;;;;3.37;48.50;95764.28;5034733;28;20035;-67
2022/03/16 00:47:53;;;;;;;9.70;6.28;;;;;;;3.33;47.11;95737.06;5052445;28;20029;-67
2022/03/16 00:50:19;;;;;;;11.68;6.35;;;;;;;3.35;46.99;95733.53;5034633;28;20029;-67
2022/03/16 00:52:44;;;;;;;10.25;6.50;;;;;;;3.52;46.90;95738.00;5052321;28;20410;-67
2022/03/16 00:55:10;;;;;;;11.48;6.72;;;;;;;3.52;46.99;95732.84;5034425;28;20095;-67
2022/03/16 00:57:35;;;;;;;10.40;7.03;;;;;;;3.54;46.31;95732.81;5050981;28;20514;-68
2022/03/16 01:00:01;;;;;;;10.32;6.70;;;;;;;3.53;46.71;95718.25;5050957;28;20036;-67
2022/03/16 01:02:27;;;;;;;9.10;6.55;;;;;;;3.47;47.40;95714.22;5034375;28;20098;-67
2022/03/16 01:04:52;;;;;;;10.25;7.00;;;;;;;3.41;47.46;95709.34;5042018;28;20033;-67
2022/03/16 01:07:17;;;;;;;9.55;6.85;;;;;;;3.37;48.04;95720.59;5032119;28;20030;-68
2022/03/16 01:09:43;;;;;;;11.52;6.30;;;;;;;3.44;47.21;95722.03;5030930;28;20041;-67
2022/03/16 01:12:09;;;;;;;9.90;6.80;;;;;;;3.48;46.63;95713.34;5030775;28;20032;-67
2022/03/16 01:14:34;;;;;;;9.20;6.80;;;;;;;3.41;46.59;95714.47;5014359;28;20022;-67
2022/03/16 01:17:00;;;;;;;10.35;6.40;;;;;;;3.42;46.39;95693.00;5030719;28;20038;-67
2022/03/16 01:19:25;;;;;;;10.23;6.32;;;;;;;3.46;45.57;95692.00;5031656;28;20152;-67
2022/03/16 01:21:50;;;;;;;10.20;6.22;;;;;;;3.53;46.01;95693.41;5030608;28;20057;-67
2022/03/16 01:24:16;;;;;;;10.95;6.68;;;;;;;3.49;46.86;95688.47;5030531;28;20033;-68
2022/03/16 01:26:41;;;;;;;11.45;7.20;;;;;;;3.48;46.87;95672.22;5030533;28;20037;-67
2022/03/16 01:29:07;;;;;;;9.68;6.70;;;;;;;3.47;47.33;95670.53;5030547;28;20033;-67
2022/03/16 01:31:33;;;;;;;9.27;6.53;;;;;;;3.40;47.92;95671.72;5032127;28;20025;-67
2022/03/16 01:33:59;;;;;;;9.98;7.10;;;;;;;3.39;47.49;95653.78;5013994;28;20523;-68
2022/03/16 01:36:25;;;;;;;9.70;6.57;;;;;;;3.19;47.71;95634.88;5030370;28;20076;-67
2022/03/16 01:38:50;;;;;;;10.38;6.75;;;;;;;3.25;46.74;95634.63;5014016;28;20049;-67
2022/03/16 01:41:15;;;;;;;10.40;6.80;;;;;;;3.20;47.45;95656.25;5031735;28;20498;-68
2022/03/16 01:43:41;;;;;;;19.00;9.85;;;;;;;3.12;47.27;95664.25;5030208;28;20048;-67
2022/03/16 01:46:06;;;;;;;19.25;12.02;;;;;;;3.21;47.15;95668.22;5030359;28;20032;-67
2022/03/16 01:48:32;;;;;;;18.20;11.30;;;;;;;3.14;47.92;95662.47;5030238;28;20106;-68
2022/03/16 01:50:57;;;;;;;13.65;8.93;;;;;;;3.20;48.38;95674.22;5013733;28;20439;-67
2022/03/16 01:53:24;;;;;;;10.95;7.50;;;;;;;3.23;49.66;95661.25;5030130;28;20482;-67
2022/03/16 01:55:50;;;;;;;11.13;7.22;;;;;;;3.23;51.59;95667.25;5031564;28;20040;-67
2022/03/16 01:58:17;;;;;;;12.57;7.70;;;;;;;3.12;50.83;95657.41;5029991;28;20119;-67
2022/03/16 02:00:42;;;;;;;9.07;6.43;;;;;;;3.09;53.98;95672.09;5030028;28;20025;-68
2022/03/16 02:03:08;;;;;;;8.77;6.28;;;;;;;2.94;53.88;95670.97;5029951;28;20040;-67
2022/03/16 02:05:34;;;;;;;10.43;6.63;;;;;;;3.00;51.96;95655.31;5043883;28;20028;-67
2022/03/16 02:08:00;;;;;;;9.07;6.47;;;;;;;3.04;50.69;95649.19;5049816;28;20209;-68
2022/03/16 02:10:25;;;;;;;10.27;6.38;;;;;;;3.05;49.30;95643.13;5049809;28;20414;-67
2022/03/16 02:12:51;;;;;;;9.27;6.43;;;;;;;3.01;50.80;95645.88;5033010;28;20496;-67
2022/03/16 02:15:17;;;;;;;9.85;6.40;;;;;;;3.05;49.14;95640.56;5016630;28;20418;-67
2022/03/16 02:17:42;;;;;;;7.57;5.65;;;;;;;3.08;49.89;95652.47;5049358;28;20037;-68
2022/03/16 02:20:08;;;;;;;9.77;6.82;;;;;;;3.00;50.09;95637.34;5049603;28;20541;-67
2022/03/16 02:22:36;;;;;;;8.82;6.47;;;;;;;2.86;53.40;95634.50;5049509;28;20041;-68
2022/03/16 02:25:02;;;;;;;10.20;7.20;;;;;;;2.82;51.69;95640.66;5049597;28;20116;-67
2022/03/16 02:27:28;;;;;;;11.07;7.35;;;;;;;2.80;53.56;95627.88;5016502;28;20037;-67
2022/03/16 02:29:54;;;;;;;9.90;6.93;;;;;;;2.80;54.17;95643.28;5049571;28;20021;-67
2022/03/16 02:32:19;;;;;;;13.15;7.13;;;;;;;2.79;53.15;95639.06;5032939;28;20045;-67
2022/03/16 02:34:45;;;;;;;13.45;9.10;;;;;;;2.90;53.05;95618.94;5050723;28;20060;-67
2022/03/16 02:37:10;;;;;;;14.10;8.95;;;;;;;2.92;51.36;95626.56;5050566;28;20041;-67
2022/03/16 02:39:36;;;;;;;15.13;10.73;;;;;;;2.91;50.75;95623.16;5016268;28;20517;-67
2022/03/16 02:42:02;;;;;;;12.20;8.60;;;;;;;2.84;52.19;95626.03;5050615;28;20036;-67
2022/03/16 02:44:27;;;;;;;13.32;8.57;;;;;;;2.83;52.63;95626.94;5050572;28;20021;-67
2022/03/16 02:46:53;;;;;;;10.50;7.35;;;;;;;2.86;55.90;95621.66;5049387;28;20033;-68
2022/03/16 02:49:18;;;;;;;11.88;7.82;;;;;;;2.72;53.35;95611.94;5049302;28;20036;-68
2022/03/16 02:51:44;;;;;;;12.05;7.55;;;;;;;2.78;53.53;95623.69;5050486;28;20033;-67
2022/03/16 02:54:09;;;;;;;11.43;6.82;;;;;;;2.76;54.43;95615.22;5049333;28;20060;-67
2022/03/16 02:56:35;;;;;;;9.98;6.80;;;;;;;2.69;54.69;95618.03;5032490;28;20056;-67
2022/03/16 02:59:02;;;;;;;12.23;6.93;;;;;;;2.68;54.50;95615.53;5050467;28;20044;-67
2022/03/16 03:01:29;;;;;;;8.60;6.30;;;;;;;2.73;56.09;95605.09;5050767;28;20036;-67
2022/03/16 03:03:54;;;;;;;8.95;6.65;;;;;;;2.69;56.97;95599.25;5048080;28;20040;-67
2022/03/16 03:06:20;;;;;;;9.52;6.60;;;;;;;2.66;57.92;95605.31;4996559;28;20033;-67
2022/03/16 03:08:46;;;;;;;8.95;6.25;;;;;;;2.57;57.56;95599.75;5029318;28;20044;-68
2022/03/16 03:11:11;;;;;;;11.57;7.13;;;;;;;2.58;59.14;95597.09;5029382;28;20083;-67
2022/03/16 03:13:36;;;;;;;9.13;6.22;;;;;;;2.56;57.73;95590.34;4996730;28;20037;-67
2022/03/16 03:16:02;;;;;;;9.45;6.60;;;;;;;2.50;58.04;95588.84;5012901;28;20030;-67
2022/03/16 03:18:27;;;;;;;9.95;6.35;;;;;;;2.54;55.93;95577.59;5014561;28;20470;-67
2022/03/16 03:20:53;;;;;;;9.45;6.70;;;;;;;2.56;57.43;95586.06;5032967;28;20030;-67
2022/03/16 03:23:18;;;;;;;8.98;6.20;;;;;;;2.54;57.77;95580.16;5032928;28;20029;-67
2022/03/16 03:25:44;;;;;;;9.82;6.82;;;;;;;2.56;58.47;95569.81;5033028;28;20419;-67
2022/03/16 03:28:09;;;;;;;10.38;6.40;;;;;;;2.59;57.64;95574.84;5034025;28;20133;-67
2022/03/16 03:30:35;;;;;;;10.93;6.97;;;;;;;2.68;58.45;95582.19;5016320;28;20041;-67
2022/03/16 03:33:00;;;;;;;15.70;8.43;;;;;;;2.64;59.45;95578.88;5016226;28;20037;-67
2022/03/16 03:35:25;;;;;;;9.65;6.20;;;;;;;2.69;57.06;95574.41;5034028;28;20041;-67
2022/03/16 03:37:52;;;;;;;12.85;7.68;;;;;;;2.61;58.12;95578.19;5032582;28;20112;-67
2022/03/16 03:40:17;;;;;;;10.48;6.70;;;;;;;2.57;59.46;95580.03;5033849;28;20064;-68
2022/03/16 03:42:42;;;;;;;8.05;5.32;;;;;;;2.62;58.12;95580.69;5016332;28;20045;-67
2022/03/16 03:45:08;;;;;;;9.00;5.88;;;;;;;2.61;57.41;95586.72;5033845;28;20464;-67
2022/03/16 03:47:33;;;;;;;8.80;6.07;;;;;;;2.50;58.42;95581.16;5032438;28;20311;-68
2022/03/16 03:49:59;;;;;;;8.82;5.80;;;;;;;2.49;58.01;95571.81;5032435;28;20545;-68
2022/03/16 03:52:24;;;;;;;8.50;5.90;;;;;;;2.49;59.63;95583.81;5032287;28;20079;-67
2022/03/16 03:54:50;;;;;;;6.97;5.30;;;;;;;2.44;59.88;95574.53;5015884;28;20029;-67
2022/03/16 03:57:15;;;;;;;9.38;5.65;;;;;;;2.48;58.46;95567.59;5032210;28;20049;-67
2022/03/16 03:59:41;;;;;;;8.40;5.63;;;;;;;2.50;57.79;95562.38;5033381;28;20041;-67
2022/03/16 04:02:06;;;;;;;9.02;6.05;;;;;;;2.47;58.38;95569.28;5015694;28;20045;-67
2022/03/16 04:04:31;;;;;;;8.32;5.50;;;;;;;2.47;58.09;95577.00;5039293;28;20025;-68
2022/03/16 04:06:57;;;;;;;9.93;5.28;;;;;;;2.55;60.43;95568.16;5049837;28;20044;-67
2022/03/16 04:09:22;;;;;;;7.97;5.07;;;;;;;2.49;58.96;95570.97;5053375;28;20028;-67
2022/03/16 04:11:48;;;;;;;10.50;5.93;;;;;;;2.44;58.04;95574.53;5051925;28;20110;-67
2022/03/16 04:14:13;;;;;;;7.00;4.88;;;;;;;2.43;58.18;95585.72;5037692;28;20037;-67
2022/03/16 04:16:39;;;;;;;9.80;5.75;;;;;;;2.52;59.27;95581.94;5046659;28;20032;-67
2022/03/16 04:19:04;;;;;;;8.77;5.53;;;;;;;2.42;58.30;95575.50;5071068;28;20464;-68
2022/03/16 04:21:29;;;;;;;8.20;5.20;;;;;;;2.35;57.85;95576.66;5070433;28;20060;-67
2022/03/16 04:23:55;;;;;;;8.25;5.47;;;;;;;2.33;58.98;95566.44;5070771;28;20123;-67
2022/03/16 04:26:20;;;;;;;8.60;5.65;;;;;;;2.34;59.14;95573.25;5072603;28;20078;-67
2022/03/16 04:28:46;;;;;;;11.75;6.75;;;;;;;2.35;60.26;95563.81;5053171;28;20486;-68
2022/03/16 04:31:12;;;;;;;11.60;8.27;;;;;;;2.32;61.53;95557.09;5069065;28;20036;-67
2022/03/16 04:33:37;;;;;;;12.77;7.50;;;;;;;2.26;60.47;95553.91;5070288;28;20032;-67
2022/03/16 04:36:03;;;;;;;12.05;6.55;;;;;;;2.33;61.61;95558.75;5070205;28;20500;-68
2022/03/16 04:38:29;;;;;;;7.80;5.57;;;;;;;2.24;60.19;95544.56;5053802;28;20036;-68
2022/03/16 04:40:54;;;;;;;7.80;5.47;;;;;;;2.27;60.49;95546.16;5072084;28;20029;-69
2022/03/16 04:43:19;;;;;;;8.77;6.13;;;;;;;2.40;57.13;95531.16;5071608;28;20049;-68
2022/03/16 04:45:45;;;;;;;12.57;6.85;;;;;;;2.57;52.11;95536.44;5052140;28;20032;-68
2022/03/16 04:48:11;;;;;;;10.85;6.55;;;;;;;2.54;53.68;95528.03;5051160;28;20041;-68
2022/03/16 04:50:40;;;;;;;11.73;7.07;;;;;;;2.45;54.89;95526.66;5070179;28;20502;-68
2022/03/16 04:53:05;;;;;;;11.93;6.90;;;;;;;2.36;56.06;95520.16;5071285;28;20102;-69
2022/03/16 04:55:32;;;;;;;8.32;6.03;;;;;;;2.37;58.57;95523.56;5070289;28;20028;-68
2022/03/16 04:57:57;;;;;;;11.30;6.50;;;;;;;2.36;58.26;95519.31;5048306;28;20040;-68
2022/03/16 05:00:24;;;;;;;14.02;9.32;;;;;;;2.36;57.57;95530.41;5032801;28;20029;-68
2022/03/16 05:02:50;;;;;;;18.20;12.35;;;;;;;2.32;56.98;95515.22;5014875;28;20034;-68
2022/03/16 05:05:15;;;;;;;14.63;9.57;;;;;;;2.39;58.27;95514.06;5030979;28;20415;-69
2022/03/16 05:07:40;;;;;;;14.57;9.98;;;;;;;2.38;57.72;95509.84;5014237;28;20034;-68
2022/03/16 05:10:06;;;;;;;9.80;7.10;;;;;;;2.41;58.74;95518.25;5033005;28;20033;-68
2022/03/16 05:12:38;;;;;;;10.32;6.18;;;;;;;2.42;57.82;95508.81;5015397;28;20029;-67
2022/03/16 05:15:06;;;;;;;9.80;6.38;;;;;;;2.38;57.13;95502.97;5030840;28;20025;-68
2022/03/16 05:17:31;;;;;;;10.63;6.93;;;;;;;2.39;57.53;95496.94;5014122;28;20041;-69
2022/03/16 05:19:57;;;;;;;12.80;6.50;;;;;;;2.40;56.98;95497.81;5034222;28;20037;-67
2022/03/16 05:22:22;;;;;;;9.90;6.55;;;;;;;2.38;57.19;95491.91;5051736;28;20029;-68
2022/03/16 05:24:48;;;;;;;12.70;7.30;;;;;;;2.44;60.00;95507.88;5048754;28;20404;-68
2022/03/16 05:27:13;;;;;;;12.70;9.20;;;;;;;2.35;59.92;95504.84;5020464;28;20515;-68
2022/03/16 05:29:38;;;;;;;12.88;8.00;;;;;;;2.31;60.53;95488.72;5031480;28;20037;-68
2022/03/16 05:32:04;;;;;;;10.55;6.65;;;;;;;2.57;60.71;95502.25;5042278;28;20090;-68
2022/03/16 05:34:30;;;;;;;8.43;6.30;;;;;;;2.58;59.53;95503.91;5044699;28;20055;-68
2022/03/16 05:36:55;;;;;;;11.70;7.22;;;;;;;2.55;57.71;95501.47;5016775;28;20044;-68
2022/03/16 05:39:20;;;;;;;10.32;6.57;;;;;;;2.57;59.48;95497.97;5051988;28;20025;-68
2022/03/16 05:41:46;;;;;;;10.23;6.57;;;;;;;2.57;59.53;95487.69;5047763;28;20049;-68
2022/03/16 05:44:11;;;;;;;9.25;6.50;;;;;;;2.54;59.35;95487.00;5029473;28;20022;-68
2022/03/16 05:46:37;;;;;;;9.27;6.28;;;;;;;2.62;59.16;95484.94;5059143;28;20035;-68
2022/03/16 05:49:02;;;;;;;9.00;6.07;;;;;;;2.55;60.40;95458.69;5068702;28;20457;-68
2022/03/16 05:51:28;;;;;;;11.13;7.95;;;;;;;2.55;59.47;95468.97;5030635;28;20025;-68
2022/03/16 05:53:59;;;;;;;10.15;7.95;;;;;;;2.63;59.96;95463.53;5029795;28;20164;-68
2022/03/16 05:56:24;;;;;;;;;;;;;;;2.67;59.33;95460.78;5047448;28;20036;-68
2022/03/16 05:58:50;;;;;;;15.40;9.52;;;;;;;2.60;58.24;95443.97;5059545;28;19928;-68
2022/03/16 06:01:15;;;;;;;15.82;10.45;;;;;;;2.63;58.31;95461.78;5067693;28;20438;-68
2022/03/16 06:03:41;;;;;;;13.13;8.50;;;;;;;2.72;59.51;95452.03;5068673;28;20037;-68
2022/03/16 06:06:06;;;;;;;13.27;9.95;;;;;;;2.90;57.67;95444.41;5059572;28;20434;-68
2022/03/16 06:08:31;;;;;;;13.32;9.32;;;;;;;2.90;58.07;95453.84;5032679;28;20028;-68
2022/03/16 06:10:57;;;;;;;23.50;12.70;;;;;;;3.00;58.16;95447.41;5038191;28;20033;-68
2022/03/16 06:13:23;;;;;;;36.25;21.08;;;;;;;3.06;56.88;95447.13;5047005;28;20032;-68
2022/03/16 06:15:48;;;;;;;36.10;21.58;;;;;;;2.95;56.43;95459.59;5021951;28;20029;-68
2022/03/16 06:18:14;;;;;;;31.77;18.15;;;;;;;2.95;57.48;95449.31;5028139;28;20523;-68
2022/03/16 06:20:39;;;;;;;41.00;22.83;;;;;;;2.97;57.79;95454.41;5034187;28;20045;-68
2022/03/16 06:23:05;;;;;;;41.08;25.75;;;;;;;3.00;56.11;95446.56;5041229;28;20032;-68
2022/03/16 06:25:32;;;;;;;41.78;23.23;;;;;;;3.07;55.98;95460.81;5049953;28;20411;-68
2022/03/16 06:27:58;;;;;;;42.55;25.05;;;;;;;3.06;54.49;95465.09;5022984;28;20074;-68
2022/03/16 06:30:23;;;;;;;43.63;22.52;;;;;;;3.12;55.97;95457.16;5030509;28;20029;-69
2022/03/16 06:32:49;;;;;;;29.90;17.52;;;;;;;3.30;54.35;95452.09;5028015;28;20103;-68
2022/03/16 06:35:15;;;;;;;44.03;21.73;;;;;;;3.37;53.95;95448.34;5039589;28;20419;-68
2022/03/16 06:37:41;;;;;;;38.72;23.00;;;;;;;3.31;53.95;95458.91;5055900;28;20114;-68
2022/03/16 06:40:07;;;;;;;32.70;19.83;;;;;;;3.20;54.35;95455.97;5025531;28;20112;-69
2022/03/16 06:42:32;;;;;;;32.22;18.88;;;;;;;3.29;53.26;95460.72;5024875;28;20040;-68
2022/03/16 06:44:58;;;;;;;43.28;19.27;;;;;;;3.18;53.65;95458.63;5033714;28;20029;-68
2022/03/16 06:47:23;;;;;;;31.35;19.48;;;;;;;3.03;54.58;95465.22;5045055;28;20033;-68
2022/03/16 06:49:49;;;;;;;35.85;19.48;;;;;;;3.22;54.14;95454.19;5045971;28;20025;-68
2022/03/16 06:52:14;;;;;;;36.53;20.27;;;;;;;3.12;54.09;95454.59;5031035;28;20084;-68
2022/03/16 06:54:39;;;;;;;33.42;20.05;;;;;;;3.18;54.08;95458.63;5046146;28;20033;-68
2022/03/16 06:57:05;;;;;;;32.85;19.35;;;;;;;3.12;53.54;95469.13;5034295;28;20044;-68
2022/03/16 06:59:30;;;;;;;40.95;20.05;;;;;;;3.01;51.81;95461.91;5033323;28;20056;-68
2022/03/16 07:01:56;;;;;;;57.05;24.77;;;;;;;3.33;50.04;95463.06;5042686;28;20033;-68
2022/03/16 07:04:21;;;;;;;39.65;20.48;;;;;;;3.29;49.40;95455.59;5044914;28;20040;-69
2022/03/16 07:06:47;;;;;;;29.88;18.45;;;;;;;3.33;49.91;95469.94;5029541;28;20564;-67
2022/03/16 07:09:12;;;;;;;26.13;15.85;;;;;;;3.28;50.64;95469.31;5049839;28;20026;-67
2022/03/16 07:11:38;;;;;;;19.75;14.07;;;;;;;3.42;48.00;95469.53;5044203;28;20063;-68
2022/03/16 07:16:47;;;;;;;24.92;14.20;;;;;;;3.41;48.69;95455.03;5054446;28;20415;-68
2022/03/16 07:19:12;;;;;;;18.00;11.73;;;;;;;3.41;48.16;95456.78;5052861;28;20053;-68
2022/03/16 07:21:38;;;;;;;20.60;13.00;;;;;;;3.43;49.20;95460.13;5036345;28;20454;-68
2022/03/16 07:24:05;;;;;;;23.77;12.90;;;;;;;3.44;49.44;95448.94;5052944;28;20083;-68
2022/03/16 07:26:30;;;;;;;19.48;13.68;;;;;;;3.37;50.42;95453.47;5036104;28;20306;-68
2022/03/16 07:28:56;;;;;;;19.00;12.32;;;;;;;3.35;50.60;95452.75;5052847;28;20029;-68
2022/03/16 07:31:22;;;;;;;21.75;13.23;;;;;;;3.49;51.43;95455.53;5036293;28;20025;-68
2022/03/16 07:33:47;;;;;;;20.73;14.05;;;;;;;3.47;51.08;95449.63;5036197;28;20119;-69
2022/03/16 07:36:13;;;;;;;26.38;15.13;;;;;;;3.65;50.79;95452.25;5054173;28;20029;-68
2022/03/16 07:38:38;;;;;;;21.92;14.55;;;;;;;3.71;51.18;95452.00;5053868;28;20033;-68
2022/03/16 07:41:05;;;;;;;25.42;15.38;;;;;;;3.80;51.06;95436.13;5052387;28;20029;-68
2022/03/16 07:43:30;;;;;;;21.13;15.00;;;;;;;3.92;49.90;95442.44;5035904;28;20033;-68
2022/03/16 07:45:56;;;;;;;24.65;14.25;;;;;;;3.95;50.07;95440.56;5052546;28;20036;-68
2022/03/16 07:48:22;;;;;;;26.20;15.27;;;;;;;4.03;51.23;95437.63;5053570;28;20502;-68
2022/03/16 07:50:48;;;;;;;32.33;15.20;;;;;;;4.13;50.43;95433.72;5035908;28;20499;-68
2022/03/16 07:53:13;;;;;;;26.48;18.20;;;;;;;4.35;48.91;95427.56;5052341;28;20025;-68
2022/03/16 07:55:39;;;;;;;33.03;18.33;;;;;;;4.32;48.80;95428.53;5035706;28;20112;-68
2022/03/16 07:58:04;;;;;;;32.38;20.00;;;;;;;4.25;49.45;95432.28;5019160;28;20056;-68
2022/03/16 08:00:29;;;;;;;43.65;24.85;;;;;;;4.31;49.43;95437.13;5052198;28;20037;-68
2022/03/16 08:02:55;;;;;;;44.83;26.50;;;;;;;4.29;49.39;95427.81;5052917;28;20025;-68
2022/03/16 08:05:24;;;;;;;41.63;26.02;;;;;;;4.29;49.79;95422.69;5051694;28;20140;-68
2022/03/16 08:07:50;;;;;;;66.43;33.72;;;;;;;4.33;49.48;95434.50;5052096;28;20679;-68
2022/03/16 08:10:15;;;;;;;50.17;26.30;;;;;;;4.60;49.13;95429.75;5035539;28;20042;-68
2022/03/16 08:12:41;;;;;;;37.85;23.38;;;;;;;4.73;48.15;95433.38;5053106;28;20048;-68
2022/03/16 08:15:06;;;;;;;36.97;22.80;;;;;;;4.68;48.81;95428.47;5053259;28;20032;-67
2022/03/16 08:17:32;;;;;;;33.25;21.60;;;;;;;4.72;48.42;95426.56;5053084;28;20051;-69
2022/03/16 08:19:57;;;;;;;47.58;26.25;;;;;;;4.79;48.40;95430.50;5035230;28;20036;-68
2022/03/16 08:22:33;;;;;;;49.30;28.27;;;;;;;4.86;48.42;95424.13;5052871;28;20032;-68
2022/03/16 08:25:00;;;;;;;49.15;27.75;;;;;;;4.97;48.65;95423.59;5018632;28;20419;-68
2022/03/16 08:27:26;;;;;;;48.08;29.17;;;;;;;4.97;48.88;95417.59;5051507;28;20029;-68
2022/03/16 08:29:52;;;;;;;51.83;29.98;;;;;;;4.99;48.91;95408.06;5051693;28;20029;-68
2022/03/16 08:32:17;;;;;;;49.40;30.08;;;;;;;4.97;48.81;95409.88;5052726;28;20112;-68
2022/03/16 08:34:44;;;;;;;59.35;33.33;;;;;;;5.10;49.46;95410.91;5051507;28;20021;-68
2022/03/16 08:37:10;;;;;;;59.70;32.88;;;;;;;5.11;49.30;95405.66;5051433;28;20036;-68
2022/03/16 08:39:36;;;;;;;53.50;29.23;;;;;;;5.22;49.65;95410.28;5034944;28;20065;-68
2022/03/16 08:42:01;;;;;;;44.13;26.05;;;;;;;5.27;49.98;95404.88;5052558;28;20041;-68
2022/03/16 08:44:27;;;;;;;41.35;22.45;;;;;;;5.27;49.54;95392.00;5051298;28;20503;-68
2022/03/16 08:46:52;;;;;;;37.83;21.30;;;;;;;5.28;49.76;95394.47;5051266;28;20029;-68
2022/03/16 08:49:18;;;;;;;37.33;21.00;;;;;;;5.37;50.46;95390.59;5034481;28;20387;-68
2022/03/16 08:51:43;;;;;;;42.00;22.00;;;;;;;5.51;49.90;95392.44;5051192;28;20068;-68
2022/03/16 08:54:09;;;;;;;30.15;18.38;;;;;;;5.62;48.43;95382.38;5034617;28;20055;-68
2022/03/16 08:56:35;;;;;;;28.80;16.00;;;;;;;5.76;45.96;95379.03;5052741;28;20025;-69
2022/03/16 08:59:01;;;;;;;37.03;21.63;;;;;;;5.82;46.20;95374.41;5034642;28;20029;-69
2022/03/16 09:01:26;;;;;;;34.90;22.73;;;;;;;5.98;46.72;95378.72;5034488;28;20043;-68
2022/03/16 09:03:53;;;;;;;50.53;29.52;;;;;;;6.01;47.32;95370.81;5051024;28;20090;-68
2022/03/16 09:06:19;;;;;;;45.70;27.52;;;;;;;6.11;46.30;95384.88;5052501;28;20021;-68
2022/03/16 09:08:44;;;;;;;34.30;20.73;;;;;;;6.32;45.85;95389.72;5052130;28;20033;-68
2022/03/16 09:11:10;;;;;;;30.63;17.88;;;;;;;6.32;45.25;95389.72;5052304;28;20479;-68
2022/03/16 09:13:35;;;;;;;23.30;16.00;;;;;;;6.28;44.27;95386.50;5034228;28;20040;-68
2022/03/16 09:16:01;;;;;;;27.55;16.08;;;;;;;6.24;44.21;95380.69;5050848;28;20028;-68
2022/03/16 09:18:27;;;;;;;26.65;13.18;;;;;;;6.31;43.45;95375.16;5050655;28;20057;-68
2022/03/16 09:20:53;;;;;;;21.55;13.45;;;;;;;6.32;43.87;95371.66;5034125;28;20402;-68
2022/03/16 09:23:19;;;;;;;19.98;11.23;;;;;;;6.53;41.36;95382.50;5050579;28;20029;-68
2022/03/16 09:25:44;;;;;;;16.08;9.48;;;;;;;6.46;41.08;95371.69;5052033;28;20033;-68
2022/03/16 09:28:10;;;;;;;13.77;9.23;;;;;;;6.56;40.63;95377.16;5033926;28;20037;-68
2022/03/16 09:30:36;;;;;;;15.95;9.85;;;;;;;6.55;41.11;95381.50;5051474;28;20479;-68
2022/03/16 09:33:01;;;;;;;20.45;10.13;;;;;;;6.60;40.55;95386.38;5033781;28;20029;-68
2022/03/16 09:35:27;;;;;;;32.38;13.68;;;;;;;6.46;40.96;95374.28;5050328;28;20032;-68
2022/03/16 09:37:54;;;;;;;31.67;12.40;;;;;;;6.63;40.94;95387.06;5051493;28;20060;-68
2022/03/16 09:40:20;;;;;;;20.50;11.43;;;;;;;6.72;41.42;95390.84;5033454;28;20442;-68
2022/03/16 09:42:46;;;;;;;23.13;12.52;;;;;;;6.76;41.99;95386.31;5050245;28;20033;-68
2022/03/16 09:45:19;;;;;;;24.58;14.80;;;;;;;6.89;41.11;95403.59;5050276;28;20033;-68
2022/03/16 09:47:46;;;;;;;23.95;12.80;;;;;;;6.90;40.94;95399.25;5050211;28;20035;-68
2022/03/16 09:50:11;;;;;;;22.30;12.32;;;;;;;6.91;40.51;95395.78;5017160;28;20029;-68
2022/03/16 09:52:37;;;;;;;16.23;10.05;;;;;;;6.93;40.21;95383.56;5033488;28;20494;-69
2022/03/16 09:55:05;;;;;;;20.10;11.18;;;;;;;7.01;40.42;95386.53;5051163;28;20029;-69
2022/03/16 09:57:30;;;;;;;21.00;11.27;;;;;;;7.20;39.92;95375.94;5051138;28;20052;-68
2022/03/16 09:59:56;;;;;;;18.27;10.65;;;;;;;7.18;40.02;95377.75;5049959;28;20397;-68
2022/03/16 10:02:21;;;;;;;20.42;11.90;;;;;;;7.28;40.16;95375.47;5049833;28;20067;-69
2022/03/16 10:04:47;;;;;;;18.05;11.05;;;;;;;7.34;39.37;95377.69;5051355;28;20454;-68
2022/03/16 10:07:12;;;;;;;16.20;10.95;;;;;;;7.38;39.43;95381.72;5033240;28;20037;-68
2022/03/16 10:15:18;;;;;;;18.52;11.77;;;;;;;7.49;38.55;95375.91;5049925;28;20040;-68
2022/03/16 10:17:49;;;;;;;20.67;10.93;;;;;;;7.36;38.88;95376.66;5033264;28;20037;-69
2022/03/16 10:20:26;;;;;;;23.45;12.43;;;;;;;7.33;39.30;95368.28;5049663;28;20028;-69
2022/03/16 10:22:58;;;;;;;22.38;12.00;;;;;;;7.32;40.06;95366.59;5049542;28;20033;-69
2022/03/16 10:25:24;;;;;;;25.35;14.73;;;;;;;7.36;40.03;95375.84;5049679;28;20024;-68
2022/03/16 10:27:50;;;;;;;24.52;15.20;;;;;;;7.41;39.96;95366.03;5050394;28;20475;-68
2022/03/16 10:30:15;;;;;;;18.55;10.82;;;;;;;7.57;38.13;95348.63;5049602;28;20063;-69
2022/03/16 10:32:52;;;;;;;15.25;9.50;;;;;;;7.56;37.73;95354.75;5049460;28;20108;-68
2022/03/16 10:35:18;;;;;;;20.88;10.88;;;;;;;7.40;39.18;95369.53;5050946;28;20055;-69
2022/03/16 10:37:43;;;;;;;21.13;11.10;;;;;;;7.41;40.05;95367.78;5049322;28;20111;-68
2022/03/16 10:40:14;;;;;;;20.42;12.27;;;;;;;7.34;40.56;95365.56;5050805;28;20279;-68
2022/03/16 10:48:15;;;;;;;32.42;16.88;;;;;;;7.13;40.65;95357.41;5049581;28;20044;-68
2022/03/16 10:50:41;;;;;;;22.83;12.88;;;;;;;7.15;40.51;95358.09;5049423;28;20032;-68
2022/03/16 10:53:09;;;;;;;20.23;12.63;;;;;;;7.27;42.08;95366.03;5032694;28;20067;-68
2022/03/16 10:55:35;;;;;;;28.15;14.60;;;;;;;7.30;40.67;95366.69;5032920;28;20029;-68
2022/03/16 10:58:01;;;;;;;16.65;11.23;;;;;;;7.40;39.87;95356.63;5032756;28;20037;-69
2022/03/16 11:00:27;;;;;;;20.85;10.73;;;;;;;7.43;39.94;95363.34;5032666;28;20075;-68
2022/03/16 11:02:53;;;;;;;27.35;14.20;;;;;;;7.33;39.73;95355.34;5032783;28;20100;-68
2022/03/16 11:05:20;;;;;;;23.75;14.50;;;;;;;7.37;39.51;95357.63;5049191;28;20567;-69
2022/03/16 11:07:47;;;;;;;24.05;14.60;;;;;;;7.42;39.41;95344.44;5049193;28;20073;-69
2022/03/16 11:10:13;;;;;;;24.42;14.15;;;;;;;7.53;39.43;95347.19;5032781;28;20067;-69
2022/03/16 11:15:22;;;;;;;22.85;12.93;;;;;;;7.81;38.38;95342.84;5049348;28;20143;-69
2022/03/16 11:17:48;;;;;;;25.42;13.60;;;;;;;7.77;38.94;95346.56;5048825;28;20056;-69
2022/03/16 11:20:13;;;;;;;27.02;12.98;;;;;;;7.60;39.83;95338.13;5032419;28;20036;-68
2022/03/16 11:24:15;;;;;;;29.25;14.23;;;;;;;7.66;39.42;95336.06;5015956;28;20061;-68
2022/03/16 11:26:01;;;;;;;20.98;12.98;;;;;;;7.73;40.18;95342.50;5049324;28;20586;-68
2022/03/16 11:29:10;;;;;;;22.15;12.95;;;;;;;7.70;40.44;95322.03;5050228;28;20534;-69
2022/03/16 11:31:35;;;;;;;18.75;13.10;;;;;;;7.67;40.87;95293.78;5018717;28;20048;-69
2022/03/16 11:34:08;;;;;;;20.70;12.25;;;;;;;7.66;41.46;95299.84;5050208;28;20033;-69
2022/03/16 11:36:40;;;;;;;24.20;13.25;;;;;;;7.65;41.36;95293.84;5049234;28;20025;-69
2022/03/16 11:39:28;;;;;;;21.80;12.02;;;;;;;7.66;41.43;95280.03;5034251;28;20416;-69
2022/03/16 11:41:56;;;;;;;21.88;12.80;;;;;;;7.71;41.49;95266.78;5052606;28;20033;-69
2022/03/16 11:44:25;;;;;;;15.27;10.43;;;;;;;7.81;40.39;95275.63;5035813;28;20499;-69